sensor_id;sensor_type;location;lat;lon;timestamp;temperature;humidity
3794;DHT22;1912;51.358;12.282;2023-10-31T04:46:41;12.10;2.60
3794;DHT22;1912;51.358;12.282;2023-10-31T04:49:07;12.20;1.00
3794;DHT22;1912;51.358;12.282;2023-10-31T04:51:35;12.20;1.00
3794;DHT22;1912;51.358;12.282;2023-10-31T04:54:01;12.20;1.00
3794;DHT22;1912;51.358;12.282;2023-10-31T04:56:27;12.20;1.00
3794;DHT22;1912;51.358;12.282;2023-10-31T04:58:52;12.20;1.00
3794;DHT22;1912;51.358;12.282;2023-10-31T05:01:18;12.30;1.00
3794;DHT22;1912;51.358;12.282;2023-10-31T05:03:44;12.30;1.00
3794;DHT22;1912;51.358;12.282;2023-10-31T05:06:10;12.30;1.00
3794;DHT22;1912;51.358;12.282;2023-10-31T05:08:36;12.30;1.00
3794;DHT22;1912;51.358;12.282;2023-10-31T05:11:02;12.30;1.00
3794;DHT22;1912;51.358;12.282;2023-10-31T05:13:28;12.30;1.00
3794;DHT22;1912;51.358;12.282;2023-10-31T05:15:54;12.30;1.00
3794;DHT22;1912;51.358;12.282;2023-10-31T05:18:20;12.30;1.00
3794;DHT22;1912;51.358;12.282;2023-10-31T05:20:45;12.30;1.00
3794;DHT22;1912;51.358;12.282;2023-10-31T05:23:11;12.30;1.00
3794;DHT22;1912;51.358;12.282;2023-10-31T05:25:37;12.30;1.00
3794;DHT22;1912;51.358;12.282;2023-10-31T05:28:03;12.30;1.00
3794;DHT22;1912;51.358;12.282;2023-10-31T05:30:29;12.40;1.00
3794;DHT22;1912;51.358;12.282;2023-10-31T05:32:55;12.30;1.00
3794;DHT22;1912;51.358;12.282;2023-10-31T05:35:21;12.30;1.00
3794;DHT22;1912;51.358;12.282;2023-10-31T05:37:47;12.40;1.00
3794;DHT22;1912;51.358;12.282;2023-10-31T05:40:13;12.30;1.00
3794;DHT22;1912;51.358;12.282;2023-10-31T05:42:40;12.30;1.00
3794;DHT22;1912;51.358;12.282;2023-10-31T05:45:06;12.30;1.00
3794;DHT22;1912;51.358;12.282;2023-10-31T05:47:31;12.30;1.00
3794;DHT22;1912;51.358;12.282;2023-10-31T05:49:58;12.30;1.00
3794;DHT22;1912;51.358;12.282;2023-10-31T05:52:28;12.30;1.00
3794;DHT22;1912;51.358;12.282;2023-10-31T05:54:55;12.30;1.00
3794;DHT22;1912;51.358;12.282;2023-10-31T05:57:21;12.40;1.00
3794;DHT22;1912;51.358;12.282;2023-10-31T05:59:46;12.30;1.00
3794;DHT22;1912;51.358;12.282;2023-10-31T06:02:13;12.40;1.00
3794;DHT22;1912;51.358;12.282;2023-10-31T06:04:39;12.30;1.00
3794;DHT22;1912;51.358;12.282;2023-10-31T06:07:06;12.30;1.00
3794;DHT22;1912;51.358;12.282;2023-10-31T06:09:32;12.30;1.00
3794;DHT22;1912;51.358;12.282;2023-10-31T06:11:59;12.20;1.00
3794;DHT22;1912;51.358;12.282;2023-10-31T06:14:25;12.30;1.00
3794;DHT22;1912;51.358;12.282;2023-10-31T06:16:51;12.20;1.00
3794;DHT22;1912;51.358;12.282;2023-10-31T06:19:17;12.20;1.00
3794;DHT22;1912;51.358;12.282;2023-10-31T06:21:43;12.20;1.00
3794;DHT22;1912;51.358;12.282;2023-10-31T06:24:09;12.10;1.00
3794;DHT22;1912;51.358;12.282;2023-10-31T06:26:35;12.10;1.00
3794;DHT22;1912;51.358;12.282;2023-10-31T06:29:01;12.10;1.00
3794;DHT22;1912;51.358;12.282;2023-10-31T06:31:26;12.00;1.00
3794;DHT22;1912;51.358;12.282;2023-10-31T06:33:52;12.10;1.00
3794;DHT22;1912;51.358;12.282;2023-10-31T06:36:18;12.00;1.00
3794;DHT22;1912;51.358;12.282;2023-10-31T06:38:43;12.00;1.00
3794;DHT22;1912;51.358;12.282;2023-10-31T06:41:09;12.00;1.00
3794;DHT22;1912;51.358;12.282;2023-10-31T06:43:35;12.00;1.00
3794;DHT22;1912;51.358;12.282;2023-10-31T06:46:01;12.00;1.00
3794;DHT22;1912;51.358;12.282;2023-10-31T06:48:28;12.00;1.00
3794;DHT22;1912;51.358;12.282;2023-10-31T06:50:54;12.00;1.00
3794;DHT22;1912;51.358;12.282;2023-10-31T06:53:19;11.90;1.00
3794;DHT22;1912;51.358;12.282;2023-10-31T06:55:45;12.00;1.00
3794;DHT22;1912;51.358;12.282;2023-10-31T06:58:11;11.90;1.00
3794;DHT22;1912;51.358;12.282;2023-10-31T07:00:36;12.00;1.00
3794;DHT22;1912;51.358;12.282;2023-10-31T07:03:03;12.00;1.00
3794;DHT22;1912;51.358;12.282;2023-10-31T07:05:35;12.00;1.00
3794;DHT22;1912;51.358;12.282;2023-10-31T07:08:04;12.00;1.00
3794;DHT22;1912;51.358;12.282;2023-10-31T07:10:30;12.00;1.00
3794;DHT22;1912;51.358;12.282;2023-10-31T07:12:56;12.00;1.00
3794;DHT22;1912;51.358;12.282;2023-10-31T07:15:24;12.00;1.00
3794;DHT22;1912;51.358;12.282;2023-10-31T07:17:52;12.00;1.00
3794;DHT22;1912;51.358;12.282;2023-10-31T07:20:18;12.00;1.00
3794;DHT22;1912;51.358;12.282;2023-10-31T07:22:44;12.00;1.00
3794;DHT22;1912;51.358;12.282;2023-10-31T07:25:09;12.00;1.00
3794;DHT22;1912;51.358;12.282;2023-10-31T07:27:35;12.00;1.00
3794;DHT22;1912;51.358;12.282;2023-10-31T07:30:03;12.00;1.00
3794;DHT22;1912;51.358;12.282;2023-10-31T07:32:31;12.00;1.00
3794;DHT22;1912;51.358;12.282;2023-10-31T07:34:57;12.00;1.00
3794;DHT22;1912;51.358;12.282;2023-10-31T07:37:23;12.10;1.00
3794;DHT22;1912;51.358;12.282;2023-10-31T07:39:49;12.00;1.00
3794;DHT22;1912;51.358;12.282;2023-10-31T07:42:16;12.10;1.00
3794;DHT22;1912;51.358;12.282;2023-10-31T07:44:42;12.10;1.00
3794;DHT22;1912;51.358;12.282;2023-10-31T07:47:08;12.20;1.00
3794;DHT22;1912;51.358;12.282;2023-10-31T07:49:33;12.10;1.00
3794;DHT22;1912;51.358;12.282;2023-10-31T07:51:59;12.10;1.00
3794;DHT22;1912;51.358;12.282;2023-10-31T07:54:25;12.10;1.00
3794;DHT22;1912;51.358;12.282;2023-10-31T07:56:50;12.10;1.00
3794;DHT22;1912;51.358;12.282;2023-10-31T07:59:16;12.20;1.00
3794;DHT22;1912;51.358;12.282;2023-10-31T08:01:41;12.10;1.00
3794;DHT22;1912;51.358;12.282;2023-10-31T08:04:07;12.20;1.00
3794;DHT22;1912;51.358;12.282;2023-10-31T08:06:33;12.20;1.00
3794;DHT22;1912;51.358;12.282;2023-10-31T08:08:59;12.20;1.00
3794;DHT22;1912;51.358;12.282;2023-10-31T08:11:25;12.20;1.00
3794;DHT22;1912;51.358;12.282;2023-10-31T08:13:53;12.20;1.00
3794;DHT22;1912;51.358;12.282;2023-10-31T08:16:19;12.20;1.00
3794;DHT22;1912;51.358;12.282;2023-10-31T08:18:45;12.20;1.00
3794;DHT22;1912;51.358;12.282;2023-10-31T08:21:12;12.20;1.00
3794;DHT22;1912;51.358;12.282;2023-10-31T08:23:38;12.30;1.00
3794;DHT22;1912;51.358;12.282;2023-10-31T08:26:04;12.30;1.00
3794;DHT22;1912;51.358;12.282;2023-10-31T08:28:30;12.40;1.00
3794;DHT22;1912;51.358;12.282;2023-10-31T08:30:57;12.40;1.00
3794;DHT22;1912;51.358;12.282;2023-10-31T08:33:23;12.40;1.00
3794;DHT22;1912;51.358;12.282;2023-10-31T08:35:49;12.40;1.00
3794;DHT22;1912;51.358;12.282;2023-10-31T08:38:16;12.60;1.00
3794;DHT22;1912;51.358;12.282;2023-10-31T08:40:42;12.80;1.00
3794;DHT22;1912;51.358;12.282;2023-10-31T08:43:08;12.90;1.00
3794;DHT22;1912;51.358;12.282;2023-10-31T08:45:33;12.90;1.00
3794;DHT22;1912;51.358;12.282;2023-10-31T08:48:00;12.90;1.00
3794;DHT22;1912;51.358;12.282;2023-10-31T08:50:26;12.90;1.00
3794;DHT22;1912;51.358;12.282;2023-10-31T08:52:52;12.80;1.00
3794;DHT22;1912;51.358;12.282;2023-10-31T08:55:18;12.80;1.00
3794;DHT22;1912;51.358;12.282;2023-10-31T08:57:43;12.80;1.00
3794;DHT22;1912;51.358;12.282;2023-10-31T09:00:09;12.80;1.00
3794;DHT22;1912;51.358;12.282;2023-10-31T09:02:35;12.80;1.00
3794;DHT22;1912;51.358;12.282;2023-10-31T09:05:01;12.80;1.00
3794;DHT22;1912;51.358;12.282;2023-10-31T09:07:27;12.80;1.00
3794;DHT22;1912;51.358;12.282;2023-10-31T09:09:53;12.60;1.00
3794;DHT22;1912;51.358;12.282;2023-10-31T09:12:18;12.60;1.00
3794;DHT22;1912;51.358;12.282;2023-10-31T09:14:44;12.60;1.00
3794;DHT22;1912;51.358;12.282;2023-10-31T09:17:10;12.50;1.00
3794;DHT22;1912;51.358;12.282;2023-10-31T09:19:36;12.50;1.00
3794;DHT22;1912;51.358;12.282;2023-10-31T09:22:01;12.50;1.00
3794;DHT22;1912;51.358;12.282;2023-10-31T09:24:27;12.60;1.00
3794;DHT22;1912;51.358;12.282;2023-10-31T09:26:53;13.00;1.00
3794;DHT22;1912;51.358;12.282;2023-10-31T09:29:18;13.20;1.00
3794;DHT22;1912;51.358;12.282;2023-10-31T09:31:44;13.10;1.00
3794;DHT22;1912;51.358;12.282;2023-10-31T09:34:10;13.00;1.00
3794;DHT22;1912;51.358;12.282;2023-10-31T09:36:36;13.20;1.00
3794;DHT22;1912;51.358;12.282;2023-10-31T09:39:01;13.30;1.00
3794;DHT22;1912;51.358;12.282;2023-10-31T09:41:28;13.30;1.00
3794;DHT22;1912;51.358;12.282;2023-10-31T09:43:54;13.30;1.00
3794;DHT22;1912;51.358;12.282;2023-10-31T09:46:21;13.40;1.00
3794;DHT22;1912;51.358;12.282;2023-10-31T09:48:48;13.40;1.00
3794;DHT22;1912;51.358;12.282;2023-10-31T09:51:14;13.60;1.00
3794;DHT22;1912;51.358;12.282;2023-10-31T09:53:41;13.60;1.00
3794;DHT22;1912;51.358;12.282;2023-10-31T09:56:10;13.50;1.00
3794;DHT22;1912;51.358;12.282;2023-10-31T09:58:36;13.60;1.00
3794;DHT22;1912;51.358;12.282;2023-10-31T10:01:02;13.70;1.00
3794;DHT22;1912;51.358;12.282;2023-10-31T10:03:29;13.70;1.00
3794;DHT22;1912;51.358;12.282;2023-10-31T10:05:54;13.80;1.00
3794;DHT22;1912;51.358;12.282;2023-10-31T10:08:21;13.90;1.00
3794;DHT22;1912;51.358;12.282;2023-10-31T10:10:48;13.60;1.00
3794;DHT22;1912;51.358;12.282;2023-10-31T10:13:20;13.50;1.00
3794;DHT22;1912;51.358;12.282;2023-10-31T10:15:47;13.50;1.00
3794;DHT22;1912;51.358;12.282;2023-10-31T10:18:31;13.40;1.00
3794;DHT22;1912;51.358;12.282;2023-10-31T10:20:59;13.40;1.00
3794;DHT22;1912;51.358;12.282;2023-10-31T10:23:26;13.60;1.00
3794;DHT22;1912;51.358;12.282;2023-10-31T10:25:55;13.70;1.00
3794;DHT22;1912;51.358;12.282;2023-10-31T10:28:22;13.60;1.00
3794;DHT22;1912;51.358;12.282;2023-10-31T10:30:51;13.60;1.00
3794;DHT22;1912;51.358;12.282;2023-10-31T10:33:19;13.70;1.00
3794;DHT22;1912;51.358;12.282;2023-10-31T10:35:45;13.60;1.00
3794;DHT22;1912;51.358;12.282;2023-10-31T10:38:13;13.70;1.00
3794;DHT22;1912;51.358;12.282;2023-10-31T10:40:40;13.80;1.00
3794;DHT22;1912;51.358;12.282;2023-10-31T10:43:20;13.70;1.00
3794;DHT22;1912;51.358;12.282;2023-10-31T10:45:54;13.60;1.00
3794;DHT22;1912;51.358;12.282;2023-10-31T10:48:25;13.50;1.00
3794;DHT22;1912;51.358;12.282;2023-10-31T10:50:57;13.40;1.00
3794;DHT22;1912;51.358;12.282;2023-10-31T10:53:44;13.50;1.00
3794;DHT22;1912;51.358;12.282;2023-10-31T10:56:24;13.50;1.00
3794;DHT22;1912;51.358;12.282;2023-10-31T11:01:30;13.50;1.00
3794;DHT22;1912;51.358;12.282;2023-10-31T11:03:56;13.60;1.00
3794;DHT22;1912;51.358;12.282;2023-10-31T11:06:22;13.50;1.00
3794;DHT22;1912;51.358;12.282;2023-10-31T11:08:49;13.50;1.00
3794;DHT22;1912;51.358;12.282;2023-10-31T11:11:16;13.60;1.00
3794;DHT22;1912;51.358;12.282;2023-10-31T11:13:44;13.70;1.00
3794;DHT22;1912;51.358;12.282;2023-10-31T11:16:20;13.70;1.00
3794;DHT22;1912;51.358;12.282;2023-10-31T11:18:51;13.80;1.00
3794;DHT22;1912;51.358;12.282;2023-10-31T11:21:17;13.80;1.00
3794;DHT22;1912;51.358;12.282;2023-10-31T11:23:43;13.70;1.00
3794;DHT22;1912;51.358;12.282;2023-10-31T11:26:09;13.60;1.00
3794;DHT22;1912;51.358;12.282;2023-10-31T11:28:36;13.60;1.00
3794;DHT22;1912;51.358;12.282;2023-10-31T11:31:01;13.50;1.00
3794;DHT22;1912;51.358;12.282;2023-10-31T11:33:28;13.40;1.00
3794;DHT22;1912;51.358;12.282;2023-10-31T11:36:01;13.40;1.00
3794;DHT22;1912;51.358;12.282;2023-10-31T11:38:35;13.40;1.00
3794;DHT22;1912;51.358;12.282;2023-10-31T11:41:02;13.40;1.00
3794;DHT22;1912;51.358;12.282;2023-10-31T11:46:05;13.20;1.00
3794;DHT22;1912;51.358;12.282;2023-10-31T11:48:49;13.20;1.00
3794;DHT22;1912;51.358;12.282;2023-10-31T11:51:16;13.20;1.00
3794;DHT22;1912;51.358;12.282;2023-10-31T11:53:43;13.10;1.00
3794;DHT22;1912;51.358;12.282;2023-10-31T11:56:10;13.10;1.00
3794;DHT22;1912;51.358;12.282;2023-10-31T11:58:37;13.10;1.00
3794;DHT22;1912;51.358;12.282;2023-10-31T12:01:07;13.00;1.00
3794;DHT22;1912;51.358;12.282;2023-10-31T12:03:41;12.80;1.00
3794;DHT22;1912;51.358;12.282;2023-10-31T12:06:09;12.90;1.00
3794;DHT22;1912;51.358;12.282;2023-10-31T12:08:40;13.00;1.00
3794;DHT22;1912;51.358;12.282;2023-10-31T12:11:15;13.10;1.00
3794;DHT22;1912;51.358;12.282;2023-10-31T12:14:02;13.30;1.00
3794;DHT22;1912;51.358;12.282;2023-10-31T12:16:32;13.50;1.00
3794;DHT22;1912;51.358;12.282;2023-10-31T12:19:05;13.40;1.00
3794;DHT22;1912;51.358;12.282;2023-10-31T12:21:42;13.40;1.00
3794;DHT22;1912;51.358;12.282;2023-10-31T12:24:10;13.50;1.00
3794;DHT22;1912;51.358;12.282;2023-10-31T12:26:37;13.50;1.00
3794;DHT22;1912;51.358;12.282;2023-10-31T12:29:15;13.40;1.00
3794;DHT22;1912;51.358;12.282;2023-10-31T12:31:46;13.40;1.00
3794;DHT22;1912;51.358;12.282;2023-10-31T12:34:17;13.20;1.00
3794;DHT22;1912;51.358;12.282;2023-10-31T12:36:46;13.30;1.00
3794;DHT22;1912;51.358;12.282;2023-10-31T12:39:13;13.40;1.00
3794;DHT22;1912;51.358;12.282;2023-10-31T12:41:40;13.30;1.00
3794;DHT22;1912;51.358;12.282;2023-10-31T12:44:07;13.20;1.00
3794;DHT22;1912;51.358;12.282;2023-10-31T12:46:39;13.20;1.00
3794;DHT22;1912;51.358;12.282;2023-10-31T12:49:19;13.30;1.00
3794;DHT22;1912;51.358;12.282;2023-10-31T12:51:56;13.20;1.00
3794;DHT22;1912;51.358;12.282;2023-10-31T12:54:30;13.30;1.00
3794;DHT22;1912;51.358;12.282;2023-10-31T12:57:07;13.30;1.00
3794;DHT22;1912;51.358;12.282;2023-10-31T12:59:35;13.30;1.00
3794;DHT22;1912;51.358;12.282;2023-10-31T13:02:03;13.20;1.00
3794;DHT22;1912;51.358;12.282;2023-10-31T13:04:33;13.20;1.00
3794;DHT22;1912;51.358;12.282;2023-10-31T13:07:01;13.10;1.00
3794;DHT22;1912;51.358;12.282;2023-10-31T13:09:34;13.10;1.00
3794;DHT22;1912;51.358;12.282;2023-10-31T13:12:05;13.10;1.00
3794;DHT22;1912;51.358;12.282;2023-10-31T13:14:32;13.20;1.00
3794;DHT22;1912;51.358;12.282;2023-10-31T13:16:59;13.30;1.00
3794;DHT22;1912;51.358;12.282;2023-10-31T13:19:28;13.20;1.00
3794;DHT22;1912;51.358;12.282;2023-10-31T13:21:53;13.20;1.00
3794;DHT22;1912;51.358;12.282;2023-10-31T13:24:20;13.20;1.00
3794;DHT22;1912;51.358;12.282;2023-10-31T13:26:46;13.20;1.00
3794;DHT22;1912;51.358;12.282;2023-10-31T13:29:17;13.10;1.00
3794;DHT22;1912;51.358;12.282;2023-10-31T13:31:44;13.20;1.00
3794;DHT22;1912;51.358;12.282;2023-10-31T13:34:10;13.20;1.00
3794;DHT22;1912;51.358;12.282;2023-10-31T13:36:36;13.10;1.00
3794;DHT22;1912;51.358;12.282;2023-10-31T13:39:03;13.10;1.00
3794;DHT22;1912;51.358;12.282;2023-10-31T13:41:29;13.20;1.00
3794;DHT22;1912;51.358;12.282;2023-10-31T13:43:55;13.10;1.00
3794;DHT22;1912;51.358;12.282;2023-10-31T13:46:21;13.10;1.00
3794;DHT22;1912;51.358;12.282;2023-10-31T13:48:51;13.00;1.00
3794;DHT22;1912;51.358;12.282;2023-10-31T13:51:17;13.10;1.00
3794;DHT22;1912;51.358;12.282;2023-10-31T13:53:44;13.20;1.00
3794;DHT22;1912;51.358;12.282;2023-10-31T13:56:10;13.20;1.00
3794;DHT22;1912;51.358;12.282;2023-10-31T13:58:36;13.20;1.00
3794;DHT22;1912;51.358;12.282;2023-10-31T14:01:05;13.10;1.00
3794;DHT22;1912;51.358;12.282;2023-10-31T14:03:34;13.10;1.00
3794;DHT22;1912;51.358;12.282;2023-10-31T14:05:59;13.10;1.00
3794;DHT22;1912;51.358;12.282;2023-10-31T14:08:25;13.10;1.00
3794;DHT22;1912;51.358;12.282;2023-10-31T14:10:51;13.20;1.00
3794;DHT22;1912;51.358;12.282;2023-10-31T14:13:17;13.20;1.00
3794;DHT22;1912;51.358;12.282;2023-10-31T14:15:43;13.20;1.00
3794;DHT22;1912;51.358;12.282;2023-10-31T14:18:09;13.20;1.00
3794;DHT22;1912;51.358;12.282;2023-10-31T14:20:35;13.10;1.00
3794;DHT22;1912;51.358;12.282;2023-10-31T14:23:01;13.10;1.00
3794;DHT22;1912;51.358;12.282;2023-10-31T14:25:26;13.10;1.00
3794;DHT22;1912;51.358;12.282;2023-10-31T14:27:52;13.10;1.00
3794;DHT22;1912;51.358;12.282;2023-10-31T14:30:18;13.10;1.00
3794;DHT22;1912;51.358;12.282;2023-10-31T14:32:43;13.10;1.00
3794;DHT22;1912;51.358;12.282;2023-10-31T14:35:09;13.10;1.00
3794;DHT22;1912;51.358;12.282;2023-10-31T14:37:35;13.10;1.00
3794;DHT22;1912;51.358;12.282;2023-10-31T14:40:01;13.00;1.00
3794;DHT22;1912;51.358;12.282;2023-10-31T14:42:28;13.00;1.00
3794;DHT22;1912;51.358;12.282;2023-10-31T14:44:54;13.00;1.00
3794;DHT22;1912;51.358;12.282;2023-10-31T14:47:22;12.90;1.00
3794;DHT22;1912;51.358;12.282;2023-10-31T14:49:47;12.90;1.00
3794;DHT22;1912;51.358;12.282;2023-10-31T14:52:13;12.90;1.00
3794;DHT22;1912;51.358;12.282;2023-10-31T14:54:39;12.90;1.00
3794;DHT22;1912;51.358;12.282;2023-10-31T14:57:04;12.90;1.00
3794;DHT22;1912;51.358;12.282;2023-10-31T14:59:30;12.90;1.00
3794;DHT22;1912;51.358;12.282;2023-10-31T15:01:56;12.80;1.00
3794;DHT22;1912;51.358;12.282;2023-10-31T15:04:22;12.80;1.00
3794;DHT22;1912;51.358;12.282;2023-10-31T15:06:48;12.80;1.00
3794;DHT22;1912;51.358;12.282;2023-10-31T15:09:13;12.70;1.00
3794;DHT22;1912;51.358;12.282;2023-10-31T15:11:39;12.80;1.00
3794;DHT22;1912;51.358;12.282;2023-10-31T15:14:08;12.80;1.00
3794;DHT22;1912;51.358;12.282;2023-10-31T15:16:33;12.70;1.00
3794;DHT22;1912;51.358;12.282;2023-10-31T15:18:59;12.70;1.00
3794;DHT22;1912;51.358;12.282;2023-10-31T15:21:25;12.70;1.00
3794;DHT22;1912;51.358;12.282;2023-10-31T15:23:50;12.70;1.00
3794;DHT22;1912;51.358;12.282;2023-10-31T15:26:16;12.70;1.00
3794;DHT22;1912;51.358;12.282;2023-10-31T15:28:44;12.70;1.00
3794;DHT22;1912;51.358;12.282;2023-10-31T15:31:10;12.70;1.00
3794;DHT22;1912;51.358;12.282;2023-10-31T15:33:36;12.60;1.00
3794;DHT22;1912;51.358;12.282;2023-10-31T15:36:02;12.60;1.00
3794;DHT22;1912;51.358;12.282;2023-10-31T15:38:28;12.60;1.00
3794;DHT22;1912;51.358;12.282;2023-10-31T15:40:54;12.60;1.00
3794;DHT22;1912;51.358;12.282;2023-10-31T15:43:20;12.60;1.00
3794;DHT22;1912;51.358;12.282;2023-10-31T15:45:45;12.60;1.00
3794;DHT22;1912;51.358;12.282;2023-10-31T15:48:12;12.60;1.00
3794;DHT22;1912;51.358;12.282;2023-10-31T15:50:39;12.60;1.00
3794;DHT22;1912;51.358;12.282;2023-10-31T15:53:05;12.50;1.00
3794;DHT22;1912;51.358;12.282;2023-10-31T15:55:31;12.50;1.00
3794;DHT22;1912;51.358;12.282;2023-10-31T15:57:56;12.50;1.00
3794;DHT22;1912;51.358;12.282;2023-10-31T16:00:23;12.40;1.00
3794;DHT22;1912;51.358;12.282;2023-10-31T16:02:49;12.40;1.00
3794;DHT22;1912;51.358;12.282;2023-10-31T16:05:15;12.40;1.00
3794;DHT22;1912;51.358;12.282;2023-10-31T16:07:41;12.30;1.00
3794;DHT22;1912;51.358;12.282;2023-10-31T16:10:07;12.30;1.00
3794;DHT22;1912;51.358;12.282;2023-10-31T16:12:33;12.30;1.00
3794;DHT22;1912;51.358;12.282;2023-10-31T16:15:02;12.30;1.00
3794;DHT22;1912;51.358;12.282;2023-10-31T16:17:31;12.20;1.00
3794;DHT22;1912;51.358;12.282;2023-10-31T16:19:57;12.20;1.00
3794;DHT22;1912;51.358;12.282;2023-10-31T16:22:22;12.20;1.00
3794;DHT22;1912;51.358;12.282;2023-10-31T16:24:48;12.20;1.00
3794;DHT22;1912;51.358;12.282;2023-10-31T16:27:19;12.10;1.00
3794;DHT22;1912;51.358;12.282;2023-10-31T16:29:53;12.10;1.00
3794;DHT22;1912;51.358;12.282;2023-10-31T16:32:22;12.10;1.00
3794;DHT22;1912;51.358;12.282;2023-10-31T16:34:47;12.10;1.00
3794;DHT22;1912;51.358;12.282;2023-10-31T16:37:20;12.10;1.00
3794;DHT22;1912;51.358;12.282;2023-10-31T16:39:46;12.10;1.00
3794;DHT22;1912;51.358;12.282;2023-10-31T16:42:15;12.10;1.00
3794;DHT22;1912;51.358;12.282;2023-10-31T16:44:49;12.00;1.00
3794;DHT22;1912;51.358;12.282;2023-10-31T16:47:15;12.10;1.00
3794;DHT22;1912;51.358;12.282;2023-10-31T16:49:41;12.10;1.00
3794;DHT22;1912;51.358;12.282;2023-10-31T16:52:09;12.10;1.00
3794;DHT22;1912;51.358;12.282;2023-10-31T16:54:36;12.10;1.00
3794;DHT22;1912;51.358;12.282;2023-10-31T16:57:02;12.10;1.00
3794;DHT22;1912;51.358;12.282;2023-10-31T16:59:27;12.10;1.00
3794;DHT22;1912;51.358;12.282;2023-10-31T17:01:53;12.00;1.00
3794;DHT22;1912;51.358;12.282;2023-10-31T17:04:19;12.00;1.00
3794;DHT22;1912;51.358;12.282;2023-10-31T17:06:44;12.10;1.00
3794;DHT22;1912;51.358;12.282;2023-10-31T17:09:10;12.00;1.00
3794;DHT22;1912;51.358;12.282;2023-10-31T17:11:36;12.00;1.00
3794;DHT22;1912;51.358;12.282;2023-10-31T17:14:01;12.00;1.00
3794;DHT22;1912;51.358;12.282;2023-10-31T17:16:28;12.00;1.00
3794;DHT22;1912;51.358;12.282;2023-10-31T17:18:54;12.00;1.00
3794;DHT22;1912;51.358;12.282;2023-10-31T17:21:19;12.00;1.00
3794;DHT22;1912;51.358;12.282;2023-10-31T17:23:45;12.00;1.00
3794;DHT22;1912;51.358;12.282;2023-10-31T17:26:11;12.00;1.00
3794;DHT22;1912;51.358;12.282;2023-10-31T17:28:43;12.00;1.00
3794;DHT22;1912;51.358;12.282;2023-10-31T17:31:12;12.00;1.00
3794;DHT22;1912;51.358;12.282;2023-10-31T17:33:44;12.00;1.00
3794;DHT22;1912;51.358;12.282;2023-10-31T17:36:15;12.00;1.00
3794;DHT22;1912;51.358;12.282;2023-10-31T17:38:41;12.00;1.00
3794;DHT22;1912;51.358;12.282;2023-10-31T17:41:09;12.00;1.00
3794;DHT22;1912;51.358;12.282;2023-10-31T17:43:35;12.00;1.00
3794;DHT22;1912;51.358;12.282;2023-10-31T17:46:03;12.00;1.00
3794;DHT22;1912;51.358;12.282;2023-10-31T17:48:29;12.00;1.00
3794;DHT22;1912;51.358;12.282;2023-10-31T17:50:55;12.10;1.00
3794;DHT22;1912;51.358;12.282;2023-10-31T17:53:21;12.00;1.00
3794;DHT22;1912;51.358;12.282;2023-10-31T17:55:48;12.00;1.00
3794;DHT22;1912;51.358;12.282;2023-10-31T17:58:13;12.00;1.00
3794;DHT22;1912;51.358;12.282;2023-10-31T18:00:39;12.10;1.00
3794;DHT22;1912;51.358;12.282;2023-10-31T18:03:05;12.10;1.00
3794;DHT22;1912;51.358;12.282;2023-10-31T18:05:32;12.00;1.00
3794;DHT22;1912;51.358;12.282;2023-10-31T18:07:58;12.10;1.00
3794;DHT22;1912;51.358;12.282;2023-10-31T18:10:23;12.10;1.00
3794;DHT22;1912;51.358;12.282;2023-10-31T18:12:49;12.10;1.00
3794;DHT22;1912;51.358;12.282;2023-10-31T18:15:16;12.10;1.00
3794;DHT22;1912;51.358;12.282;2023-10-31T18:17:42;12.10;1.00
3794;DHT22;1912;51.358;12.282;2023-10-31T18:20:09;12.10;1.00
3794;DHT22;1912;51.358;12.282;2023-10-31T18:22:35;12.10;1.00
3794;DHT22;1912;51.358;12.282;2023-10-31T18:25:02;12.10;1.00
3794;DHT22;1912;51.358;12.282;2023-10-31T18:27:28;12.10;1.00
3794;DHT22;1912;51.358;12.282;2023-10-31T18:29:54;12.10;1.00
3794;DHT22;1912;51.358;12.282;2023-10-31T18:32:21;12.00;1.00
3794;DHT22;1912;51.358;12.282;2023-10-31T18:34:51;12.00;1.00
3794;DHT22;1912;51.358;12.282;2023-10-31T18:37:16;11.90;1.00
3794;DHT22;1912;51.358;12.282;2023-10-31T18:39:42;11.90;1.00
3794;DHT22;1912;51.358;12.282;2023-10-31T18:42:08;11.90;1.00
3794;DHT22;1912;51.358;12.282;2023-10-31T18:44:37;11.90;1.00
3794;DHT22;1912;51.358;12.282;2023-10-31T18:47:03;11.90;1.00
3794;DHT22;1912;51.358;12.282;2023-10-31T18:49:29;11.90;1.00
3794;DHT22;1912;51.358;12.282;2023-10-31T18:51:55;11.90;1.00
3794;DHT22;1912;51.358;12.282;2023-10-31T18:54:21;11.90;1.00
3794;DHT22;1912;51.358;12.282;2023-10-31T18:56:47;11.90;1.00
3794;DHT22;1912;51.358;12.282;2023-10-31T18:59:12;11.90;1.00
3794;DHT22;1912;51.358;12.282;2023-10-31T19:01:38;11.80;1.00
3794;DHT22;1912;51.358;12.282;2023-10-31T19:04:04;11.80;1.00
3794;DHT22;1912;51.358;12.282;2023-10-31T19:06:30;11.90;1.00
3794;DHT22;1912;51.358;12.282;2023-10-31T19:08:57;11.70;1.00
3794;DHT22;1912;51.358;12.282;2023-10-31T19:11:22;11.60;1.00
3794;DHT22;1912;51.358;12.282;2023-10-31T19:13:48;11.60;1.00
3794;DHT22;1912;51.358;12.282;2023-10-31T19:16:14;11.60;1.00
3794;DHT22;1912;51.358;12.282;2023-10-31T19:18:40;11.50;1.00
3794;DHT22;1912;51.358;12.282;2023-10-31T19:21:05;11.50;1.00
3794;DHT22;1912;51.358;12.282;2023-10-31T19:23:31;11.50;1.00
3794;DHT22;1912;51.358;12.282;2023-10-31T19:25:58;11.40;1.00
3794;DHT22;1912;51.358;12.282;2023-10-31T19:28:24;11.40;1.00
3794;DHT22;1912;51.358;12.282;2023-10-31T19:30:50;11.50;1.00
3794;DHT22;1912;51.358;12.282;2023-10-31T19:33:16;11.50;1.00
3794;DHT22;1912;51.358;12.282;2023-10-31T19:35:42;11.40;1.00
3794;DHT22;1912;51.358;12.282;2023-10-31T19:38:08;11.40;1.00
3794;DHT22;1912;51.358;12.282;2023-10-31T19:40:35;11.40;1.00
3794;DHT22;1912;51.358;12.282;2023-10-31T19:43:00;11.50;1.00
3794;DHT22;1912;51.358;12.282;2023-10-31T19:45:29;11.50;1.00
3794;DHT22;1912;51.358;12.282;2023-10-31T19:47:56;11.50;1.00
3794;DHT22;1912;51.358;12.282;2023-10-31T19:50:22;11.50;1.00
3794;DHT22;1912;51.358;12.282;2023-10-31T19:52:48;11.50;1.00
3794;DHT22;1912;51.358;12.282;2023-10-31T19:55:16;11.40;1.00
3794;DHT22;1912;51.358;12.282;2023-10-31T19:57:43;11.50;1.00
3794;DHT22;1912;51.358;12.282;2023-10-31T20:00:10;11.50;1.00
3794;DHT22;1912;51.358;12.282;2023-10-31T20:02:37;11.50;1.00
3794;DHT22;1912;51.358;12.282;2023-10-31T20:05:03;11.50;1.00
3794;DHT22;1912;51.358;12.282;2023-10-31T20:07:29;11.50;1.00
3794;DHT22;1912;51.358;12.282;2023-10-31T20:09:54;11.50;1.00
3794;DHT22;1912;51.358;12.282;2023-10-31T20:12:20;11.50;1.00
3794;DHT22;1912;51.358;12.282;2023-10-31T20:14:46;11.50;1.00
3794;DHT22;1912;51.358;12.282;2023-10-31T20:17:11;11.50;1.00
3794;DHT22;1912;51.358;12.282;2023-10-31T20:19:37;11.50;1.00
3794;DHT22;1912;51.358;12.282;2023-10-31T20:22:03;11.50;1.00
3794;DHT22;1912;51.358;12.282;2023-10-31T20:24:29;11.60;1.00
3794;DHT22;1912;51.358;12.282;2023-10-31T20:26:54;11.60;1.00
3794;DHT22;1912;51.358;12.282;2023-10-31T20:29:20;11.60;1.00
3794;DHT22;1912;51.358;12.282;2023-10-31T20:31:46;11.50;1.00
3794;DHT22;1912;51.358;12.282;2023-10-31T20:34:11;11.50;1.00
3794;DHT22;1912;51.358;12.282;2023-10-31T20:36:37;11.50;1.00
3794;DHT22;1912;51.358;12.282;2023-10-31T20:39:07;11.50;1.00
3794;DHT22;1912;51.358;12.282;2023-10-31T20:41:32;11.40;1.00
3794;DHT22;1912;51.358;12.282;2023-10-31T20:43:59;11.30;1.00
3794;DHT22;1912;51.358;12.282;2023-10-31T20:46:26;11.30;1.00
3794;DHT22;1912;51.358;12.282;2023-10-31T20:48:52;11.20;1.00
3794;DHT22;1912;51.358;12.282;2023-10-31T20:51:17;11.10;1.00